sensor_id;sensor_type;location;lat;lon;timestamp;temperature;humidity
25438;DHT22;13364;49.084;9.978;2023-07-13T00:01:49;20.20;65.40
25438;DHT22;13364;49.084;9.978;2023-07-13T00:04:21;20.10;65.70
25438;DHT22;13364;49.084;9.978;2023-07-13T00:06:49;20.10;66.00
25438;DHT22;13364;49.084;9.978;2023-07-13T00:09:18;20.00;65.80
25438;DHT22;13364;49.084;9.978;2023-07-13T00:11:50;20.00;66.30
25438;DHT22;13364;49.084;9.978;2023-07-13T00:14:18;19.90;66.40
25438;DHT22;13364;49.084;9.978;2023-07-13T00:16:45;19.80;66.40
25438;DHT22;13364;49.084;9.978;2023-07-13T00:19:13;19.70;66.60
25438;DHT22;13364;49.084;9.978;2023-07-13T00:21:41;19.60;66.70
25438;DHT22;13364;49.084;9.978;2023-07-13T00:24:12;19.60;66.90
25438;DHT22;13364;49.084;9.978;2023-07-13T00:26:40;19.50;66.90
25438;DHT22;13364;49.084;9.978;2023-07-13T00:29:08;19.40;67.00
25438;DHT22;13364;49.084;9.978;2023-07-13T00:31:36;19.30;67.20
25438;DHT22;13364;49.084;9.978;2023-07-13T00:34:04;19.30;67.30
25438;DHT22;13364;49.084;9.978;2023-07-13T00:36:31;19.20;67.20
25438;DHT22;13364;49.084;9.978;2023-07-13T00:38:58;19.10;67.10
25438;DHT22;13364;49.084;9.978;2023-07-13T00:41:25;19.10;67.50
25438;DHT22;13364;49.084;9.978;2023-07-13T00:43:53;19.00;67.80
25438;DHT22;13364;49.084;9.978;2023-07-13T00:48:51;18.90;68.10
25438;DHT22;13364;49.084;9.978;2023-07-13T00:51:22;18.90;68.30
25438;DHT22;13364;49.084;9.978;2023-07-13T00:53:53;18.90;68.40
25438;DHT22;13364;49.084;9.978;2023-07-13T00:56:22;18.80;68.20
25438;DHT22;13364;49.084;9.978;2023-07-13T00:58:49;18.80;68.40
25438;DHT22;13364;49.084;9.978;2023-07-13T01:01:17;18.70;68.50
25438;DHT22;13364;49.084;9.978;2023-07-13T01:03:45;18.70;68.50
25438;DHT22;13364;49.084;9.978;2023-07-13T01:06:13;18.60;68.80
25438;DHT22;13364;49.084;9.978;2023-07-13T01:08:41;18.50;68.60
25438;DHT22;13364;49.084;9.978;2023-07-13T01:11:08;18.50;68.90
25438;DHT22;13364;49.084;9.978;2023-07-13T01:13:36;18.50;69.10
25438;DHT22;13364;49.084;9.978;2023-07-13T01:16:35;18.50;69.40
25438;DHT22;13364;49.084;9.978;2023-07-13T01:21:51;18.40;69.40
25438;DHT22;13364;49.084;9.978;2023-07-13T01:24:18;18.40;69.60
25438;DHT22;13364;49.084;9.978;2023-07-13T01:26:45;18.40;69.90
25438;DHT22;13364;49.084;9.978;2023-07-13T01:29:12;18.40;69.80
25438;DHT22;13364;49.084;9.978;2023-07-13T01:31:39;18.40;69.40
25438;DHT22;13364;49.084;9.978;2023-07-13T01:34:06;18.40;69.50
25438;DHT22;13364;49.084;9.978;2023-07-13T01:36:33;18.40;69.60
25438;DHT22;13364;49.084;9.978;2023-07-13T01:39:00;18.40;69.10
25438;DHT22;13364;49.084;9.978;2023-07-13T01:41:27;18.50;69.50
25438;DHT22;13364;49.084;9.978;2023-07-13T01:43:55;18.50;69.10
25438;DHT22;13364;49.084;9.978;2023-07-13T01:46:22;18.50;68.80
25438;DHT22;13364;49.084;9.978;2023-07-13T01:48:50;18.50;69.10
25438;DHT22;13364;49.084;9.978;2023-07-13T01:51:18;18.50;69.20
25438;DHT22;13364;49.084;9.978;2023-07-13T01:53:46;18.40;68.60
25438;DHT22;13364;49.084;9.978;2023-07-13T01:56:13;18.40;68.50
25438;DHT22;13364;49.084;9.978;2023-07-13T01:58:40;18.40;68.40
25438;DHT22;13364;49.084;9.978;2023-07-13T02:01:07;18.30;68.60
25438;DHT22;13364;49.084;9.978;2023-07-13T02:03:34;18.30;68.80
25438;DHT22;13364;49.084;9.978;2023-07-13T02:06:02;18.30;68.40
25438;DHT22;13364;49.084;9.978;2023-07-13T02:08:32;18.10;68.50
25438;DHT22;13364;49.084;9.978;2023-07-13T02:10:59;18.10;68.70
25438;DHT22;13364;49.084;9.978;2023-07-13T02:13:27;18.00;68.90
25438;DHT22;13364;49.084;9.978;2023-07-13T02:15:54;18.00;69.20
25438;DHT22;13364;49.084;9.978;2023-07-13T02:18:21;18.00;68.90
25438;DHT22;13364;49.084;9.978;2023-07-13T02:20:48;18.00;69.00
25438;DHT22;13364;49.084;9.978;2023-07-13T02:23:15;18.00;69.40
25438;DHT22;13364;49.084;9.978;2023-07-13T02:25:42;17.90;69.70
25438;DHT22;13364;49.084;9.978;2023-07-13T02:28:09;17.90;69.50
25438;DHT22;13364;49.084;9.978;2023-07-13T02:30:37;17.80;70.00
25438;DHT22;13364;49.084;9.978;2023-07-13T02:33:05;17.70;70.30
25438;DHT22;13364;49.084;9.978;2023-07-13T02:35:32;17.70;70.40
25438;DHT22;13364;49.084;9.978;2023-07-13T02:37:59;17.60;70.50
25438;DHT22;13364;49.084;9.978;2023-07-13T02:40:26;17.60;71.00
25438;DHT22;13364;49.084;9.978;2023-07-13T02:42:53;17.50;71.40
25438;DHT22;13364;49.084;9.978;2023-07-13T02:45:20;17.50;71.00
25438;DHT22;13364;49.084;9.978;2023-07-13T02:47:47;17.50;71.40
25438;DHT22;13364;49.084;9.978;2023-07-13T02:50:15;17.40;71.20
25438;DHT22;13364;49.084;9.978;2023-07-13T02:52:42;17.40;71.70
25438;DHT22;13364;49.084;9.978;2023-07-13T02:55:09;17.40;71.40
25438;DHT22;13364;49.084;9.978;2023-07-13T02:57:36;17.40;71.00
25438;DHT22;13364;49.084;9.978;2023-07-13T03:00:05;17.40;71.50
25438;DHT22;13364;49.084;9.978;2023-07-13T03:02:34;17.40;71.50
25438;DHT22;13364;49.084;9.978;2023-07-13T03:05:02;17.40;71.60
25438;DHT22;13364;49.084;9.978;2023-07-13T03:07:30;17.50;71.80
25438;DHT22;13364;49.084;9.978;2023-07-13T03:09:58;17.40;71.60
25438;DHT22;13364;49.084;9.978;2023-07-13T03:12:35;17.40;71.30
25438;DHT22;13364;49.084;9.978;2023-07-13T03:15:06;17.30;71.50
25438;DHT22;13364;49.084;9.978;2023-07-13T03:17:36;17.30;71.40
25438;DHT22;13364;49.084;9.978;2023-07-13T03:20:04;17.20;71.10
25438;DHT22;13364;49.084;9.978;2023-07-13T03:22:31;17.10;71.20
25438;DHT22;13364;49.084;9.978;2023-07-13T03:24:58;17.00;71.70
25438;DHT22;13364;49.084;9.978;2023-07-13T03:27:26;16.90;71.40
25438;DHT22;13364;49.084;9.978;2023-07-13T03:29:54;16.90;71.70
25438;DHT22;13364;49.084;9.978;2023-07-13T03:32:22;16.80;72.10
25438;DHT22;13364;49.084;9.978;2023-07-13T03:34:49;16.80;72.10
25438;DHT22;13364;49.084;9.978;2023-07-13T03:37:16;16.80;72.20
25438;DHT22;13364;49.084;9.978;2023-07-13T03:39:43;16.80;71.90
25438;DHT22;13364;49.084;9.978;2023-07-13T03:42:11;16.70;71.70
25438;DHT22;13364;49.084;9.978;2023-07-13T03:44:40;16.80;71.80
25438;DHT22;13364;49.084;9.978;2023-07-13T03:47:07;16.80;71.70
25438;DHT22;13364;49.084;9.978;2023-07-13T03:49:35;16.80;71.40
25438;DHT22;13364;49.084;9.978;2023-07-13T03:52:03;16.80;71.40
25438;DHT22;13364;49.084;9.978;2023-07-13T03:54:30;16.80;71.50
25438;DHT22;13364;49.084;9.978;2023-07-13T03:56:57;16.80;71.30
25438;DHT22;13364;49.084;9.978;2023-07-13T03:59:25;16.90;71.30
25438;DHT22;13364;49.084;9.978;2023-07-13T04:01:52;16.90;70.90
25438;DHT22;13364;49.084;9.978;2023-07-13T04:04:19;17.00;70.60
25438;DHT22;13364;49.084;9.978;2023-07-13T04:06:47;17.00;70.70
25438;DHT22;13364;49.084;9.978;2023-07-13T04:09:14;17.00;70.80
25438;DHT22;13364;49.084;9.978;2023-07-13T04:11:41;17.00;71.10
25438;DHT22;13364;49.084;9.978;2023-07-13T04:14:09;17.00;70.80
25438;DHT22;13364;49.084;9.978;2023-07-13T04:16:36;17.00;70.90
25438;DHT22;13364;49.084;9.978;2023-07-13T04:19:03;17.00;70.40
25438;DHT22;13364;49.084;9.978;2023-07-13T04:21:31;17.00;70.60
25438;DHT22;13364;49.084;9.978;2023-07-13T04:23:58;17.00;70.30
25438;DHT22;13364;49.084;9.978;2023-07-13T04:26:25;17.00;70.20
25438;DHT22;13364;49.084;9.978;2023-07-13T04:28:53;17.00;70.10
25438;DHT22;13364;49.084;9.978;2023-07-13T04:31:20;17.00;70.20
25438;DHT22;13364;49.084;9.978;2023-07-13T04:33:49;17.00;70.30
25438;DHT22;13364;49.084;9.978;2023-07-13T04:36:17;17.00;70.60
25438;DHT22;13364;49.084;9.978;2023-07-13T04:38:44;17.00;70.20
25438;DHT22;13364;49.084;9.978;2023-07-13T04:41:13;17.00;70.60
25438;DHT22;13364;49.084;9.978;2023-07-13T04:43:41;17.10;70.80
25438;DHT22;13364;49.084;9.978;2023-07-13T04:46:11;17.10;70.40
25438;DHT22;13364;49.084;9.978;2023-07-13T04:48:40;17.10;70.50
25438;DHT22;13364;49.084;9.978;2023-07-13T04:51:07;17.10;70.00
25438;DHT22;13364;49.084;9.978;2023-07-13T04:53:34;17.10;70.50
25438;DHT22;13364;49.084;9.978;2023-07-13T04:56:02;17.10;70.50
25438;DHT22;13364;49.084;9.978;2023-07-13T04:58:30;17.10;70.80
25438;DHT22;13364;49.084;9.978;2023-07-13T05:01:05;17.20;70.40
25438;DHT22;13364;49.084;9.978;2023-07-13T05:06:55;17.30;70.10
25438;DHT22;13364;49.084;9.978;2023-07-13T05:09:22;17.40;70.30
25438;DHT22;13364;49.084;9.978;2023-07-13T05:11:49;17.40;69.70
25438;DHT22;13364;49.084;9.978;2023-07-13T05:14:16;17.40;69.60
25438;DHT22;13364;49.084;9.978;2023-07-13T05:16:43;17.60;69.40
25438;DHT22;13364;49.084;9.978;2023-07-13T05:19:11;17.60;69.30
25438;DHT22;13364;49.084;9.978;2023-07-13T05:21:38;17.70;69.10
25438;DHT22;13364;49.084;9.978;2023-07-13T05:24:05;17.70;69.20
25438;DHT22;13364;49.084;9.978;2023-07-13T05:26:50;17.80;69.00
25438;DHT22;13364;49.084;9.978;2023-07-13T05:29:17;17.80;69.00
25438;DHT22;13364;49.084;9.978;2023-07-13T05:31:44;17.80;69.00
25438;DHT22;13364;49.084;9.978;2023-07-13T05:34:11;17.80;69.20
25438;DHT22;13364;49.084;9.978;2023-07-13T05:36:38;17.90;68.70
25438;DHT22;13364;49.084;9.978;2023-07-13T05:39:05;17.90;68.00
25438;DHT22;13364;49.084;9.978;2023-07-13T05:41:32;17.80;68.50
25438;DHT22;13364;49.084;9.978;2023-07-13T05:43:59;17.90;68.50
25438;DHT22;13364;49.084;9.978;2023-07-13T05:46:26;17.90;68.00
25438;DHT22;13364;49.084;9.978;2023-07-13T05:48:54;17.80;68.40
25438;DHT22;13364;49.084;9.978;2023-07-13T05:51:21;17.80;68.80
25438;DHT22;13364;49.084;9.978;2023-07-13T05:53:48;17.80;68.60
25438;DHT22;13364;49.084;9.978;2023-07-13T05:56:15;17.90;68.70
25438;DHT22;13364;49.084;9.978;2023-07-13T05:58:42;17.90;68.70
25438;DHT22;13364;49.084;9.978;2023-07-13T06:01:11;18.00;68.80
25438;DHT22;13364;49.084;9.978;2023-07-13T06:03:39;18.10;68.50
25438;DHT22;13364;49.084;9.978;2023-07-13T06:06:08;18.20;67.60
25438;DHT22;13364;49.084;9.978;2023-07-13T06:08:36;18.20;67.30
25438;DHT22;13364;49.084;9.978;2023-07-13T06:11:24;18.30;67.80
25438;DHT22;13364;49.084;9.978;2023-07-13T06:13:51;18.40;67.40
25438;DHT22;13364;49.084;9.978;2023-07-13T06:16:19;18.50;67.20
25438;DHT22;13364;49.084;9.978;2023-07-13T06:18:46;18.50;67.00
25438;DHT22;13364;49.084;9.978;2023-07-13T06:21:17;18.70;67.20
25438;DHT22;13364;49.084;9.978;2023-07-13T06:23:46;18.80;67.10
25438;DHT22;13364;49.084;9.978;2023-07-13T06:26:18;18.90;67.70
25438;DHT22;13364;49.084;9.978;2023-07-13T06:28:46;19.00;65.60
25438;DHT22;13364;49.084;9.978;2023-07-13T06:31:14;19.00;65.20
25438;DHT22;13364;49.084;9.978;2023-07-13T06:33:42;19.10;64.40
25438;DHT22;13364;49.084;9.978;2023-07-13T06:36:10;19.10;64.20
25438;DHT22;13364;49.084;9.978;2023-07-13T06:38:38;19.10;63.80
25438;DHT22;13364;49.084;9.978;2023-07-13T06:41:07;19.00;64.00
25438;DHT22;13364;49.084;9.978;2023-07-13T06:43:34;19.00;64.50
25438;DHT22;13364;49.084;9.978;2023-07-13T06:46:02;19.00;64.10
25438;DHT22;13364;49.084;9.978;2023-07-13T06:48:29;19.00;64.20
25438;DHT22;13364;49.084;9.978;2023-07-13T06:50:56;18.90;64.90
25438;DHT22;13364;49.084;9.978;2023-07-13T06:53:23;19.00;64.90
25438;DHT22;13364;49.084;9.978;2023-07-13T06:55:51;19.10;65.20
25438;DHT22;13364;49.084;9.978;2023-07-13T06:58:19;19.10;65.10
25438;DHT22;13364;49.084;9.978;2023-07-13T07:00:46;19.20;64.90
25438;DHT22;13364;49.084;9.978;2023-07-13T07:03:13;19.20;64.40
25438;DHT22;13364;49.084;9.978;2023-07-13T07:05:41;19.30;64.30
25438;DHT22;13364;49.084;9.978;2023-07-13T07:08:08;19.20;64.60
25438;DHT22;13364;49.084;9.978;2023-07-13T07:10:35;19.20;64.50
25438;DHT22;13364;49.084;9.978;2023-07-13T07:13:03;19.20;64.10
25438;DHT22;13364;49.084;9.978;2023-07-13T07:15:31;19.20;64.80
25438;DHT22;13364;49.084;9.978;2023-07-13T07:17:58;19.20;65.00
25438;DHT22;13364;49.084;9.978;2023-07-13T07:20:25;19.20;64.60
25438;DHT22;13364;49.084;9.978;2023-07-13T07:22:53;19.30;65.00
25438;DHT22;13364;49.084;9.978;2023-07-13T07:25:20;19.30;65.20
25438;DHT22;13364;49.084;9.978;2023-07-13T07:27:47;19.40;64.70
25438;DHT22;13364;49.084;9.978;2023-07-13T07:30:17;19.50;64.10
25438;DHT22;13364;49.084;9.978;2023-07-13T07:32:47;19.60;64.00
25438;DHT22;13364;49.084;9.978;2023-07-13T07:35:17;19.70;62.60
25438;DHT22;13364;49.084;9.978;2023-07-13T07:37:44;19.80;62.50
25438;DHT22;13364;49.084;9.978;2023-07-13T07:40:14;19.90;61.50
25438;DHT22;13364;49.084;9.978;2023-07-13T07:42:44;19.80;61.00
25438;DHT22;13364;49.084;9.978;2023-07-13T07:45:11;19.90;61.00
25438;DHT22;13364;49.084;9.978;2023-07-13T07:47:38;19.90;60.80
25438;DHT22;13364;49.084;9.978;2023-07-13T07:50:06;20.00;59.50
25438;DHT22;13364;49.084;9.978;2023-07-13T07:52:33;20.10;59.70
25438;DHT22;13364;49.084;9.978;2023-07-13T07:55:00;20.20;59.20
25438;DHT22;13364;49.084;9.978;2023-07-13T07:57:30;20.20;59.00
25438;DHT22;13364;49.084;9.978;2023-07-13T08:00:00;20.30;59.00
25438;DHT22;13364;49.084;9.978;2023-07-13T08:02:40;20.50;58.50
25438;DHT22;13364;49.084;9.978;2023-07-13T08:05:28;20.60;58.10
25438;DHT22;13364;49.084;9.978;2023-07-13T08:07:58;20.80;55.60
25438;DHT22;13364;49.084;9.978;2023-07-13T08:10:25;20.90;54.60
25438;DHT22;13364;49.084;9.978;2023-07-13T08:12:52;21.00;55.00
25438;DHT22;13364;49.084;9.978;2023-07-13T08:15:23;21.20;54.40
25438;DHT22;13364;49.084;9.978;2023-07-13T08:17:50;21.30;52.40
25438;DHT22;13364;49.084;9.978;2023-07-13T08:20:17;21.40;50.80
25438;DHT22;13364;49.084;9.978;2023-07-13T08:22:44;21.40;51.20
25438;DHT22;13364;49.084;9.978;2023-07-13T08:25:11;21.50;51.40
25438;DHT22;13364;49.084;9.978;2023-07-13T08:27:39;21.60;51.30
25438;DHT22;13364;49.084;9.978;2023-07-13T08:30:06;21.70;51.40
25438;DHT22;13364;49.084;9.978;2023-07-13T08:32:36;21.80;50.50
25438;DHT22;13364;49.084;9.978;2023-07-13T08:35:04;21.90;52.10
25438;DHT22;13364;49.084;9.978;2023-07-13T08:37:32;22.00;50.30
25438;DHT22;13364;49.084;9.978;2023-07-13T08:39:59;22.20;49.00
25438;DHT22;13364;49.084;9.978;2023-07-13T08:42:45;22.30;49.20
25438;DHT22;13364;49.084;9.978;2023-07-13T08:48:38;22.60;48.00
25438;DHT22;13364;49.084;9.978;2023-07-13T08:50:57;22.60;47.90
25438;DHT22;13364;49.084;9.978;2023-07-13T08:53:47;22.70;48.40
25438;DHT22;13364;49.084;9.978;2023-07-13T08:56:27;22.90;47.80
25438;DHT22;13364;49.084;9.978;2023-07-13T08:59:15;23.00;47.00
25438;DHT22;13364;49.084;9.978;2023-07-13T09:02:28;23.10;47.50
25438;DHT22;13364;49.084;9.978;2023-07-13T09:05:26;23.20;47.30
25438;DHT22;13364;49.084;9.978;2023-07-13T09:10:54;23.50;45.80
25438;DHT22;13364;49.084;9.978;2023-07-13T09:13:46;23.50;45.40
25438;DHT22;13364;49.084;9.978;2023-07-13T09:16:15;23.40;46.00
25438;DHT22;13364;49.084;9.978;2023-07-13T09:18:45;23.60;47.10
25438;DHT22;13364;49.084;9.978;2023-07-13T09:21:21;23.80;45.70
25438;DHT22;13364;49.084;9.978;2023-07-13T09:23:53;23.90;45.60
25438;DHT22;13364;49.084;9.978;2023-07-13T09:26:24;24.10;45.20
25438;DHT22;13364;49.084;9.978;2023-07-13T09:28:58;24.30;45.50
25438;DHT22;13364;49.084;9.978;2023-07-13T09:31:33;24.40;44.60
25438;DHT22;13364;49.084;9.978;2023-07-13T09:37:45;24.50;44.60
25438;DHT22;13364;49.084;9.978;2023-07-13T09:43:08;24.60;43.40
25438;DHT22;13364;49.084;9.978;2023-07-13T09:45:37;24.60;43.80
25438;DHT22;13364;49.084;9.978;2023-07-13T09:48:14;24.80;41.50
25438;DHT22;13364;49.084;9.978;2023-07-13T09:50:43;24.60;41.20
25438;DHT22;13364;49.084;9.978;2023-07-13T09:53:18;24.50;42.30
25438;DHT22;13364;49.084;9.978;2023-07-13T09:55:49;24.60;42.20
25438;DHT22;13364;49.084;9.978;2023-07-13T09:58:25;24.70;43.10
25438;DHT22;13364;49.084;9.978;2023-07-13T10:01:00;24.90;42.00
25438;DHT22;13364;49.084;9.978;2023-07-13T10:03:31;25.00;43.20
25438;DHT22;13364;49.084;9.978;2023-07-13T10:06:16;25.10;42.90
25438;DHT22;13364;49.084;9.978;2023-07-13T10:08:48;25.30;41.90
25438;DHT22;13364;49.084;9.978;2023-07-13T10:11:21;25.50;41.90
25438;DHT22;13364;49.084;9.978;2023-07-13T10:16:26;25.80;40.80
25438;DHT22;13364;49.084;9.978;2023-07-13T10:18:59;26.00;39.80
25438;DHT22;13364;49.084;9.978;2023-07-13T10:21:33;26.10;39.90
25438;DHT22;13364;49.084;9.978;2023-07-13T10:24:19;26.10;40.30
25438;DHT22;13364;49.084;9.978;2023-07-13T10:29:27;26.20;38.50
25438;DHT22;13364;49.084;9.978;2023-07-13T10:31:55;26.20;38.90
25438;DHT22;13364;49.084;9.978;2023-07-13T10:34:24;26.30;40.50
25438;DHT22;13364;49.084;9.978;2023-07-13T10:36:52;26.30;38.80
25438;DHT22;13364;49.084;9.978;2023-07-13T10:39:24;26.30;39.00
25438;DHT22;13364;49.084;9.978;2023-07-13T10:42:00;26.40;38.00
25438;DHT22;13364;49.084;9.978;2023-07-13T10:44:31;26.50;37.80
25438;DHT22;13364;49.084;9.978;2023-07-13T10:46:59;26.40;39.50
25438;DHT22;13364;49.084;9.978;2023-07-13T10:49:29;26.40;37.40
25438;DHT22;13364;49.084;9.978;2023-07-13T10:51:58;26.30;39.30
25438;DHT22;13364;49.084;9.978;2023-07-13T10:54:33;26.40;37.80
25438;DHT22;13364;49.084;9.978;2023-07-13T10:57:24;26.30;38.20
25438;DHT22;13364;49.084;9.978;2023-07-13T11:02:31;26.30;38.00
25438;DHT22;13364;49.084;9.978;2023-07-13T11:04:58;26.20;39.10
25438;DHT22;13364;49.084;9.978;2023-07-13T11:08:12;26.20;39.80
25438;DHT22;13364;49.084;9.978;2023-07-13T11:10:55;26.30;39.80
25438;DHT22;13364;49.084;9.978;2023-07-13T11:16:21;26.30;38.30
25438;DHT22;13364;49.084;9.978;2023-07-13T11:21:30;26.40;39.50
25438;DHT22;13364;49.084;9.978;2023-07-13T11:24:04;26.50;41.20
25438;DHT22;13364;49.084;9.978;2023-07-13T11:26:51;26.50;39.80
25438;DHT22;13364;49.084;9.978;2023-07-13T11:32:00;26.10;39.50
25438;DHT22;13364;49.084;9.978;2023-07-13T11:34:37;25.90;40.40
25438;DHT22;13364;49.084;9.978;2023-07-13T11:37:12;25.90;39.40
25438;DHT22;13364;49.084;9.978;2023-07-13T11:39:43;25.90;40.10
25438;DHT22;13364;49.084;9.978;2023-07-13T11:42:16;26.00;39.60
25438;DHT22;13364;49.084;9.978;2023-07-13T11:44:47;26.10;39.60
25438;DHT22;13364;49.084;9.978;2023-07-13T11:47:34;26.00;40.60
25438;DHT22;13364;49.084;9.978;2023-07-13T11:50:01;26.10;39.40
25438;DHT22;13364;49.084;9.978;2023-07-13T11:52:33;26.20;41.10
25438;DHT22;13364;49.084;9.978;2023-07-13T11:55:03;26.50;39.40
25438;DHT22;13364;49.084;9.978;2023-07-13T11:57:34;26.50;39.70
25438;DHT22;13364;49.084;9.978;2023-07-13T12:00:13;26.60;39.70
25438;DHT22;13364;49.084;9.978;2023-07-13T12:02:47;26.70;39.30
25438;DHT22;13364;49.084;9.978;2023-07-13T12:05:18;26.80;39.30
25438;DHT22;13364;49.084;9.978;2023-07-13T12:07:45;26.80;38.70
25438;DHT22;13364;49.084;9.978;2023-07-13T12:12:48;27.10;39.00
25438;DHT22;13364;49.084;9.978;2023-07-13T12:15:16;27.40;37.60
25438;DHT22;13364;49.084;9.978;2023-07-13T12:17:43;27.40;38.80
25438;DHT22;13364;49.084;9.978;2023-07-13T12:20:23;27.50;38.20
25438;DHT22;13364;49.084;9.978;2023-07-13T12:22:52;27.50;37.60
25438;DHT22;13364;49.084;9.978;2023-07-13T12:25:20;27.70;36.40
25438;DHT22;13364;49.084;9.978;2023-07-13T12:27:50;27.80;37.80
25438;DHT22;13364;49.084;9.978;2023-07-13T12:33:12;27.90;36.00
25438;DHT22;13364;49.084;9.978;2023-07-13T12:35:47;27.80;36.40
25438;DHT22;13364;49.084;9.978;2023-07-13T12:38:16;27.80;37.70
25438;DHT22;13364;49.084;9.978;2023-07-13T12:40:43;28.00;36.20
25438;DHT22;13364;49.084;9.978;2023-07-13T12:43:12;28.20;35.40
25438;DHT22;13364;49.084;9.978;2023-07-13T12:45:58;28.30;35.70
25438;DHT22;13364;49.084;9.978;2023-07-13T12:48:25;28.40;35.20
25438;DHT22;13364;49.084;9.978;2023-07-13T12:51:10;28.40;36.90
25438;DHT22;13364;49.084;9.978;2023-07-13T12:53:47;28.40;35.50
25438;DHT22;13364;49.084;9.978;2023-07-13T12:56:26;28.40;35.60
25438;DHT22;13364;49.084;9.978;2023-07-13T12:58:58;28.40;35.80
25438;DHT22;13364;49.084;9.978;2023-07-13T13:01:29;28.30;36.40
25438;DHT22;13364;49.084;9.978;2023-07-13T13:03:56;28.30;35.80
25438;DHT22;13364;49.084;9.978;2023-07-13T13:06:29;28.10;35.10
25438;DHT22;13364;49.084;9.978;2023-07-13T13:08:58;28.10;36.80
25438;DHT22;13364;49.084;9.978;2023-07-13T13:11:27;27.90;35.00
25438;DHT22;13364;49.084;9.978;2023-07-13T13:13:54;27.80;35.90
25438;DHT22;13364;49.084;9.978;2023-07-13T13:16:28;27.90;37.00
25438;DHT22;13364;49.084;9.978;2023-07-13T13:19:05;27.80;35.20
25438;DHT22;13364;49.084;9.978;2023-07-13T13:21:36;27.60;35.60
25438;DHT22;13364;49.084;9.978;2023-07-13T13:24:12;27.40;36.30
25438;DHT22;13364;49.084;9.978;2023-07-13T13:26:40;27.60;37.90
25438;DHT22;13364;49.084;9.978;2023-07-13T13:29:26;27.90;36.70
25438;DHT22;13364;49.084;9.978;2023-07-13T13:31:54;28.10;37.10
25438;DHT22;13364;49.084;9.978;2023-07-13T13:34:23;28.20;35.90
25438;DHT22;13364;49.084;9.978;2023-07-13T13:36:54;28.00;35.20
25438;DHT22;13364;49.084;9.978;2023-07-13T13:39:36;27.80;36.50
25438;DHT22;13364;49.084;9.978;2023-07-13T13:42:04;27.80;36.00
25438;DHT22;13364;49.084;9.978;2023-07-13T13:44:31;27.70;35.60
25438;DHT22;13364;49.084;9.978;2023-07-13T13:46:59;27.70;35.80
25438;DHT22;13364;49.084;9.978;2023-07-13T13:49:27;27.90;36.60
25438;DHT22;13364;49.084;9.978;2023-07-13T13:51:55;28.10;37.00
25438;DHT22;13364;49.084;9.978;2023-07-13T13:54:24;28.10;35.60
25438;DHT22;13364;49.084;9.978;2023-07-13T13:56:53;28.10;36.20
25438;DHT22;13364;49.084;9.978;2023-07-13T13:59:20;28.10;35.40
25438;DHT22;13364;49.084;9.978;2023-07-13T14:02:22;28.00;34.50
25438;DHT22;13364;49.084;9.978;2023-07-13T14:04:58;27.70;35.90
25438;DHT22;13364;49.084;9.978;2023-07-13T14:07:26;27.70;35.80
25438;DHT22;13364;49.084;9.978;2023-07-13T14:09:57;27.80;35.90
25438;DHT22;13364;49.084;9.978;2023-07-13T14:12:25;27.80;35.10
25438;DHT22;13364;49.084;9.978;2023-07-13T14:14:56;27.80;35.50
25438;DHT22;13364;49.084;9.978;2023-07-13T14:17:27;27.80;34.30
25438;DHT22;13364;49.084;9.978;2023-07-13T14:19:55;27.70;35.10
25438;DHT22;13364;49.084;9.978;2023-07-13T14:22:26;27.80;34.30
25438;DHT22;13364;49.084;9.978;2023-07-13T14:24:54;27.60;34.90
25438;DHT22;13364;49.084;9.978;2023-07-13T14:27:22;27.50;34.60
25438;DHT22;13364;49.084;9.978;2023-07-13T14:29:49;27.50;34.20
25438;DHT22;13364;49.084;9.978;2023-07-13T14:32:16;27.50;36.60
25438;DHT22;13364;49.084;9.978;2023-07-13T14:34:45;27.60;36.70
25438;DHT22;13364;49.084;9.978;2023-07-13T14:37:14;27.80;36.40
25438;DHT22;13364;49.084;9.978;2023-07-13T14:39:44;28.00;36.10
25438;DHT22;13364;49.084;9.978;2023-07-13T14:42:12;28.10;35.50
25438;DHT22;13364;49.084;9.978;2023-07-13T14:44:39;28.00;34.60
25438;DHT22;13364;49.084;9.978;2023-07-13T14:47:35;27.80;34.70
25438;DHT22;13364;49.084;9.978;2023-07-13T14:50:03;27.60;35.10
25438;DHT22;13364;49.084;9.978;2023-07-13T14:52:32;27.50;36.20
25438;DHT22;13364;49.084;9.978;2023-07-13T14:54:59;27.40;36.40
25438;DHT22;13364;49.084;9.978;2023-07-13T14:57:26;27.60;36.30
25438;DHT22;13364;49.084;9.978;2023-07-13T14:59:53;27.60;35.70
25438;DHT22;13364;49.084;9.978;2023-07-13T15:02:27;27.70;36.00
25438;DHT22;13364;49.084;9.978;2023-07-13T15:04:57;27.70;35.90
25438;DHT22;13364;49.084;9.978;2023-07-13T15:07:28;27.90;36.00
25438;DHT22;13364;49.084;9.978;2023-07-13T15:09:55;28.00;35.60
25438;DHT22;13364;49.084;9.978;2023-07-13T15:12:22;28.00;35.20
25438;DHT22;13364;49.084;9.978;2023-07-13T15:15:28;27.80;34.90
25438;DHT22;13364;49.084;9.978;2023-07-13T15:17:56;27.50;34.80
25438;DHT22;13364;49.084;9.978;2023-07-13T15:20:27;27.20;35.80
25438;DHT22;13364;49.084;9.978;2023-07-13T15:22:59;27.10;36.20
25438;DHT22;13364;49.084;9.978;2023-07-13T15:25:30;27.10;37.80
25438;DHT22;13364;49.084;9.978;2023-07-13T15:27:58;27.20;37.60
25438;DHT22;13364;49.084;9.978;2023-07-13T15:30:31;27.20;38.20
25438;DHT22;13364;49.084;9.978;2023-07-13T15:33:16;27.20;38.10
25438;DHT22;13364;49.084;9.978;2023-07-13T15:35:44;27.10;38.30
25438;DHT22;13364;49.084;9.978;2023-07-13T15:38:18;27.10;38.30
25438;DHT22;13364;49.084;9.978;2023-07-13T15:40:46;27.10;38.80
25438;DHT22;13364;49.084;9.978;2023-07-13T15:43:15;27.00;38.10
25438;DHT22;13364;49.084;9.978;2023-07-13T15:45:43;26.80;38.40
25438;DHT22;13364;49.084;9.978;2023-07-13T15:48:21;26.70;38.90
25438;DHT22;13364;49.084;9.978;2023-07-13T15:54:18;26.30;39.30
25438;DHT22;13364;49.084;9.978;2023-07-13T15:56:51;26.40;39.50
25438;DHT22;13364;49.084;9.978;2023-07-13T15:59:19;26.50;39.00
25438;DHT22;13364;49.084;9.978;2023-07-13T16:01:47;26.60;39.00
25438;DHT22;13364;49.084;9.978;2023-07-13T16:04:16;26.70;38.20
25438;DHT22;13364;49.084;9.978;2023-07-13T16:06:47;26.70;38.00
25438;DHT22;13364;49.084;9.978;2023-07-13T16:09:20;26.60;38.10
25438;DHT22;13364;49.084;9.978;2023-07-13T16:11:50;26.70;38.00
25438;DHT22;13364;49.084;9.978;2023-07-13T16:14:18;26.70;39.40
25438;DHT22;13364;49.084;9.978;2023-07-13T16:16:47;26.80;38.00
25438;DHT22;13364;49.084;9.978;2023-07-13T16:19:15;26.60;37.60
25438;DHT22;13364;49.084;9.978;2023-07-13T16:21:46;26.40;38.30
25438;DHT22;13364;49.084;9.978;2023-07-13T16:24:21;26.10;38.50
25438;DHT22;13364;49.084;9.978;2023-07-13T16:26:49;26.10;39.00
25438;DHT22;13364;49.084;9.978;2023-07-13T16:29:19;26.00;38.60
25438;DHT22;13364;49.084;9.978;2023-07-13T16:32:15;26.00;39.80
25438;DHT22;13364;49.084;9.978;2023-07-13T16:34:43;26.10;39.80
25438;DHT22;13364;49.084;9.978;2023-07-13T16:37:15;26.10;38.80